Terminal Aerodrome Forecast
Issued by NWS Rapid City, SD

Home | Current Version | Previous Version | Graphics & Text | Print | Product List | Glossary Off
Versions: 1 2 3 4 5 6 7 8 9 10 11 12 13 14 15

000
FTUS43 KUNR 301700
TAFRAP
TAF
KRAP 301723Z 3018/3118 34020G30KT P6SM SCT250
     FM310100 VRB05KT P6SM SKC
     FM311600 18010KT P6SM SCT250=

USA.gov is the U.S. government's official web portal to all federal, state and local government web resources and services.